• Join FlightAware (Why Join?)
  • Login
  • US Flag 
12:40AM EDT


 

Airport Tracker/Info


-or-


 

Live Flight TrackerFlight Track Log ✈ N881FT ✈ 12-May-2012 ✈ KPIE - KMLB

Flight Track Log - Related Links

Times and Time Zones

All times are in EDT time to prevent confusion due to time zone crossing. See the N881FT flight status page for this flight to view local times or setup timezone preferences in your user account.

Time Position Orientation Groundspeed Altitude Reporting Facility
EDT Latitude Longitude Course Direction KTS MPH feet Rate Location/Type
03:39PM 27.8667 -82.7000 270° West 119 137 1,700  Level Tampa TRACON
03:40PM 27.8667 -82.7500 241° Southwest 138 159 1,700 60 Level Tampa TRACON
03:41PM 27.8500 -82.7833 336° Northwest 135 155 1,900 360 Climbing Tampa TRACON
03:42PM 27.8833 -82.8000 360° North 118 136 2,500 600 Climbing Tampa TRACON
03:43PM 27.9167 -82.8000 60° Northeast 104 120 3,100 240 Climbing Tampa TRACON
03:44PM 27.9333 -82.7667 24° Northeast 125 144 3,000  Descending Tampa TRACON
03:45PM 27.9667 -82.7500 90° East 117 135 3,200  Climbing Tampa TRACON
03:46PM 27.9667 -82.7167 90° East 124 143 3,100  Descending Tampa TRACON
03:47PM 27.9667 -82.6667 60° Northeast 116 133 3,300 240 Climbing Tampa TRACON
03:48PM 27.9833 -82.6333 90° East 114 131 3,700 420 Climbing Tampa TRACON
03:49PM 27.9833 -82.6000 90° East 120 138 4,200 180 Climbing Tampa TRACON
03:50PM 27.9833 -82.5667 90° East 128 147 4,100 -120 Descending Tampa TRACON
03:51PM 27.9833 -82.5167 90° East 120 138 4,000 -120 Descending Tampa TRACON
03:52PM 27.9833 -82.4833 120° Southeast 118 136 3,900 60 Descending Tampa TRACON
03:53PM 27.9667 -82.4500 60° Northeast 112 129 4,200 180 Climbing Tampa TRACON
03:54PM 27.9833 -82.4167 90° East 116 133 4,300 300 Climbing Tampa TRACON
03:55PM 27.9833 -82.3833 90° East 114 131 4,800 360 Climbing Tampa TRACON
03:56PM 27.9833 -82.3500 90° East 118 136 5,100 120 Climbing Tampa TRACON
03:57PM 27.9833 -82.3000 90° East 120 138 5,100  Level Tampa TRACON
03:58PM 27.9833 -82.2667 90° East 127 146 5,100  Level Tampa TRACON
03:59PM 27.9833 -82.2167 90° East 129 148 5,100  Level Tampa TRACON
04:00PM 27.9833 -82.1833 120° Southeast 128 147 5,100  Level Tampa TRACON
04:01PM 27.9667 -82.1500 60° Northeast 125 144 5,100  Level Tampa TRACON
04:02PM 27.9833 -82.1167 79° East 128 147 5,100  Level Tampa TRACON
04:04PM 28.0000 -82.0167 90° East 129 148 5,100 -60 Level Orlando TRACON
04:05PM 28.0000 -81.9667 90° East 128 147 5,000  Descending Orlando TRACON
04:06PM 28.0000 -81.9333 90° East 126 145 5,100  Climbing Orlando TRACON
04:07PM 28.0000 -81.9000 90° East 128 147 5,100 -60 Level Orlando TRACON
04:08PM 28.0000 -81.8500 60° Northeast 126 145 5,000  Descending Orlando TRACON
04:09PM 28.0167 -81.8167 90° East 121 139 5,100  Climbing Orlando TRACON
04:10PM 28.0167 -81.7833 69° East 128 147 5,100  Level Orlando TRACON
04:11PM 28.0333 -81.7333 90° East 128 147 5,100 -60 Level Orlando TRACON
04:12PM 28.0333 -81.7000 90° East 125 144 5,000 -60 Descending Orlando TRACON
04:13PM 28.0333 -81.6667 90° East 123 142 5,000  Level Orlando TRACON
04:14PM 28.0333 -81.6333 90° East 120 138 5,000  Level Orlando TRACON
04:15PM 28.0333 -81.5833 90° East 121 139 5,100  Climbing Orlando TRACON
04:16PM 28.0333 -81.5500 60° Northeast 123 142 5,100  Level Orlando TRACON
04:17PM 28.0500 -81.5167 90° East 129 148 5,100 -480 Level Orlando TRACON
04:18PM 28.0500 -81.4667 60° Northeast 123 142 4,200 -840 Descending Orlando TRACON
04:19PM 28.0667 -81.4333 90° East 120 138 3,500 -600 Descending Orlando TRACON
04:20PM 28.0667 -81.4000 90° East 118 136 3,100 -240 Descending Orlando TRACON
04:21PM 28.0667 -81.3667 90° East 120 138 3,100 -60 Level Orlando TRACON
04:22PM 28.0667 -81.3167 60° Northeast 119 137 3,000 -60 Descending Orlando TRACON
04:23PM 28.0833 -81.2833 90° East 113 130 3,000  Level Orlando TRACON
04:24PM 28.0833 -81.2500 90° East 110 127 3,100 60 Climbing Orlando TRACON
04:25PM 28.0833 -81.2167 90° East 110 127 3,200 -60 Climbing Orlando TRACON
04:26PM 28.0833 -81.1833 120° Southeast 116 133 3,000 -60 Descending Orlando TRACON
04:27PM 28.0667 -81.1500 69° East 115 132 3,100 -60 Climbing Orlando TRACON
04:29PM 28.0833 -81.1000 90° East 111 128 2,900 -60 Descending Orlando TRACON
04:29PM 28.0833 -81.0667 90° East 111 128 3,000 60 Climbing Orlando TRACON